createdAt,value
2022-11-04T00:00:29.673Z,8.61
2022-11-04T00:02:59.004Z,8.68
2022-11-04T00:05:27.825Z,8.69
2022-11-04T00:08:15.482Z,8.85
2022-11-04T00:11:01.570Z,8.85
2022-11-04T00:13:31.361Z,8.97
2022-11-04T00:16:20.879Z,9.04
2022-11-04T00:18:49.805Z,9.03
2022-11-04T00:21:36.324Z,8.99
2022-11-04T00:24:25.468Z,9.03
2022-11-04T00:27:11.874Z,9.07
2022-11-04T00:29:40.877Z,9.13
2022-11-04T00:32:28.038Z,9.10
2022-11-04T00:34:56.959Z,9.11
2022-11-04T00:37:25.927Z,9.11
2022-11-04T00:39:56.134Z,9.13
2022-11-04T00:42:25.062Z,9.11
2022-11-04T00:44:53.810Z,9.15
2022-11-04T00:47:22.555Z,9.20
2022-11-04T00:49:52.580Z,9.22
2022-11-04T00:52:21.768Z,9.21
2022-11-04T00:54:50.842Z,9.24
2022-11-04T00:57:21.103Z,9.28
2022-11-04T00:59:50.160Z,9.27
2022-11-04T01:02:19.015Z,9.27
2022-11-04T01:04:48.967Z,9.36
2022-11-04T01:07:17.891Z,9.23
2022-11-04T01:09:46.635Z,9.09
2022-11-04T01:12:17.071Z,9.02
2022-11-04T01:14:50.081Z,8.96
2022-11-04T01:17:18.765Z,8.88
2022-11-04T01:19:47.503Z,8.89
2022-11-04T01:22:16.415Z,8.94
2022-11-04T01:24:45.518Z,8.94
2022-11-04T01:27:14.342Z,8.94
2022-11-04T01:29:43.084Z,8.83
2022-11-04T01:32:13.250Z,8.77
2022-11-04T01:34:43.564Z,8.84
2022-11-04T01:37:12.758Z,8.75
2022-11-04T01:39:41.691Z,8.78
2022-11-04T01:42:16.432Z,8.72
2022-11-04T01:44:56.017Z,8.67
2022-11-04T01:47:36.766Z,8.73
2022-11-04T01:50:12.571Z,8.70
2022-11-04T01:52:51.210Z,8.70
2022-11-04T01:55:25.270Z,8.72
2022-11-04T01:58:01.609Z,8.73
2022-11-04T02:00:31.446Z,8.70
2022-11-04T02:03:07.830Z,8.65
2022-11-04T02:05:37.361Z,8.66
2022-11-04T02:08:10.769Z,8.70
2022-11-04T02:10:47.473Z,8.68
2022-11-04T02:13:15.303Z,8.71
2022-11-04T02:15:54.826Z,8.71
2022-11-04T02:18:45.264Z,8.67
2022-11-04T02:21:46.739Z,8.60
2022-11-04T02:24:58.742Z,8.48
2022-11-04T02:28:00.515Z,8.43
2022-11-04T02:30:38.320Z,8.39
2022-11-04T02:33:31.721Z,8.39
2022-11-04T02:36:09.134Z,8.40
2022-11-04T02:38:51.836Z,8.44
2022-11-04T02:41:38.450Z,8.46
2022-11-04T02:44:19.048Z,8.52
2022-11-04T02:46:57.540Z,8.50
2022-11-04T02:49:34.346Z,8.46
2022-11-04T02:52:08.916Z,8.45
2022-11-04T02:54:46.147Z,8.38
2022-11-04T02:57:21.587Z,8.40
2022-11-04T02:59:57.532Z,8.42
2022-11-04T03:02:35.173Z,8.48
2022-11-04T03:05:08.510Z,8.43
2022-11-04T03:07:42.840Z,8.37
2022-11-04T03:10:20.423Z,8.44
2022-11-04T03:12:58.560Z,8.39
2022-11-04T03:15:33.985Z,8.47
2022-11-04T03:18:19.296Z,8.49
2022-11-04T03:20:51.272Z,8.47
2022-11-04T03:23:20.918Z,8.43
2022-11-04T03:25:58.404Z,8.39
2022-11-04T03:28:41.340Z,8.40
2022-11-04T03:31:22.460Z,8.37
2022-11-04T03:33:57.067Z,8.38
2022-11-04T03:36:26.073Z,8.36
2022-11-04T03:38:55.332Z,8.32
2022-11-04T03:41:34.283Z,8.36
2022-11-04T03:44:03.391Z,8.38
2022-11-04T03:46:32.407Z,8.40
2022-11-04T03:49:04.394Z,8.41
2022-11-04T03:51:34.534Z,8.36
2022-11-04T03:54:03.767Z,8.37
2022-11-04T03:57:04.631Z,8.40
2022-11-04T04:00:01.124Z,8.50
2022-11-04T04:02:39.053Z,8.53
2022-11-04T04:05:20.981Z,8.46
2022-11-04T04:07:58.112Z,8.45
2022-11-04T04:10:43.141Z,8.50
2022-11-04T04:13:38.775Z,8.48
2022-11-04T04:16:15.328Z,8.53
2022-11-04T04:18:54.170Z,8.57
2022-11-04T04:21:34.565Z,8.58
2022-11-04T04:24:23.318Z,8.61
2022-11-04T04:27:13.469Z,8.62
2022-11-04T04:29:46.466Z,8.71
2022-11-04T04:32:17.554Z,8.77
2022-11-04T04:34:46.586Z,8.85
2022-11-04T04:37:23.118Z,8.89
2022-11-04T04:40:17.561Z,8.91
2022-11-04T04:43:12.586Z,8.89
2022-11-04T04:45:49.706Z,8.93
2022-11-04T04:48:19.361Z,8.95
2022-11-04T04:50:57.023Z,8.98
2022-11-04T04:53:27.237Z,9.07
2022-11-04T04:55:55.999Z,9.10
2022-11-04T04:58:24.819Z,9.16
2022-11-04T05:00:54.378Z,9.16
2022-11-04T05:03:23.370Z,9.16
2022-11-04T05:05:54.880Z,9.12
2022-11-04T05:08:28.208Z,9.10
2022-11-04T05:10:57.000Z,9.07
2022-11-04T05:13:30.399Z,9.05
2022-11-04T05:16:05.082Z,8.99
2022-11-04T05:18:33.931Z,9.00
2022-11-04T05:21:06.399Z,8.96
2022-11-04T05:23:36.837Z,8.94
2022-11-04T05:26:06.122Z,8.96
2022-11-04T05:28:35.211Z,8.94
2022-11-04T05:31:06.674Z,8.93
2022-11-04T05:33:35.760Z,8.93
2022-11-04T05:36:08.965Z,9.00
2022-11-04T05:38:41.347Z,9.08
2022-11-04T05:41:12.300Z,9.15
2022-11-04T05:43:41.210Z,9.26
2022-11-04T05:46:10.045Z,9.40
2022-11-04T05:48:40.929Z,9.42
2022-11-04T05:51:15.221Z,9.43
2022-11-04T05:53:45.885Z,9.41
2022-11-04T05:56:14.849Z,9.36
2022-11-04T05:58:44.195Z,9.28
2022-11-04T06:01:28.252Z,9.19
2022-11-04T06:04:00.106Z,9.11
2022-11-04T06:06:34.080Z,9.08
2022-11-04T06:09:05.803Z,9.03
2022-11-04T06:11:36.178Z,9.07
2022-11-04T06:14:05.766Z,9.12
2022-11-04T06:16:34.756Z,9.07
2022-11-04T06:19:07.690Z,8.97
2022-11-04T06:21:40.034Z,8.95
2022-11-04T06:24:10.303Z,8.97
2022-11-04T06:26:39.763Z,8.97
2022-11-04T06:29:11.641Z,8.98
2022-11-04T06:31:40.588Z,8.93
2022-11-04T06:34:09.448Z,8.93
2022-11-04T06:36:38.191Z,8.97
2022-11-04T06:39:07.368Z,8.97
2022-11-04T06:41:38.265Z,8.98
2022-11-04T06:44:07.175Z,9.04
2022-11-04T06:46:39.803Z,9.05
2022-11-04T06:49:13.044Z,9.05
2022-11-04T06:51:42.574Z,9.02
2022-11-04T06:54:12.843Z,9.02
2022-11-04T06:56:43.809Z,9.02
2022-11-04T06:59:19.210Z,9.03
2022-11-04T07:01:52.242Z,9.11
2022-11-04T07:04:23.251Z,9.10
2022-11-04T07:06:53.007Z,9.08
2022-11-04T07:09:22.807Z,9.14
2022-11-04T07:11:54.097Z,9.12
2022-11-04T07:14:23.778Z,9.13
2022-11-04T07:16:54.089Z,9.11
2022-11-04T07:19:25.467Z,9.09
2022-11-04T07:21:56.134Z,9.11
2022-11-04T07:24:26.141Z,9.11
2022-11-04T07:26:58.227Z,9.15
2022-11-04T07:29:27.831Z,9.14
2022-11-04T07:31:59.218Z,9.20
2022-11-04T07:34:30.255Z,9.22
2022-11-04T07:37:00.207Z,9.21
2022-11-04T07:39:29.094Z,9.26
2022-11-04T07:41:59.864Z,9.34
2022-11-04T07:44:29.016Z,9.33
2022-11-04T07:46:58.492Z,9.40
2022-11-04T07:49:27.888Z,9.43
2022-11-04T07:51:56.780Z,9.41
2022-11-04T07:54:25.597Z,9.48
2022-11-04T07:56:54.475Z,9.42
2022-11-04T07:59:24.718Z,9.47
2022-11-04T08:01:54.036Z,9.53
2022-11-04T08:04:24.349Z,9.55
2022-11-04T08:06:53.628Z,9.71
2022-11-04T08:09:23.781Z,9.62
2022-11-04T08:11:52.833Z,9.74
2022-11-04T08:14:22.059Z,9.71
2022-11-04T08:16:54.033Z,9.70
2022-11-04T08:19:23.017Z,9.76
2022-11-04T08:21:52.196Z,9.84
2022-11-04T08:24:21.328Z,9.89
2022-11-04T08:26:50.196Z,9.95
2022-11-04T08:29:19.158Z,10.04
2022-11-04T08:31:48.453Z,10.03
2022-11-04T08:34:18.851Z,10.20
2022-11-04T08:36:48.813Z,10.25
2022-11-04T08:39:17.785Z,10.46
2022-11-04T08:41:48.244Z,10.41
2022-11-04T08:44:18.184Z,10.46
2022-11-04T08:46:48.681Z,10.37
2022-11-04T08:49:21.392Z,10.57
2022-11-04T08:51:56.681Z,10.50
2022-11-04T08:54:27.011Z,10.57
2022-11-04T08:56:57.261Z,10.63
2022-11-04T08:59:26.305Z,10.75
2022-11-04T09:01:57.614Z,10.82
2022-11-04T09:04:28.368Z,10.78
2022-11-04T09:06:57.629Z,10.81
2022-11-04T09:09:26.549Z,11.04
2022-11-04T09:11:55.493Z,11.47
2022-11-04T09:14:24.914Z,11.59
2022-11-04T09:16:54.235Z,11.51
2022-11-04T09:19:24.104Z,11.43
2022-11-04T09:21:55.063Z,11.31
2022-11-04T09:24:24.377Z,11.22
2022-11-04T09:26:53.316Z,11.09
2022-11-04T09:29:22.168Z,11.27
2022-11-04T09:31:51.385Z,11.06
2022-11-04T09:34:20.475Z,11.01
2022-11-04T09:36:49.350Z,11.08
2022-11-04T09:39:19.847Z,11.34
2022-11-04T09:42:06.901Z,11.57
2022-11-04T09:45:15.385Z,11.75
2022-11-04T09:47:42.239Z,11.96
2022-11-04T09:50:20.506Z,11.94
2022-11-04T09:52:55.578Z,11.72
2022-11-04T09:55:34.124Z,11.86
2022-11-04T09:58:04.823Z,11.63
2022-11-04T10:00:41.017Z,11.67
2022-11-04T10:03:39.845Z,11.55
2022-11-04T10:06:33.432Z,11.66
2022-11-04T10:09:18.671Z,11.89
2022-11-04T10:12:06.861Z,12.11
2022-11-04T10:15:02.361Z,12.25
2022-11-04T10:17:51.910Z,12.36
2022-11-04T10:20:47.188Z,12.31
2022-11-04T10:23:25.052Z,12.13
2022-11-04T10:26:06.437Z,12.16
2022-11-04T10:28:43.572Z,12.03
2022-11-04T10:31:17.302Z,12.05
2022-11-04T10:33:53.122Z,12.05
2022-11-04T10:36:23.689Z,12.12
2022-11-04T10:38:55.858Z,11.99
2022-11-04T10:41:34.900Z,12.01
2022-11-04T10:44:10.411Z,12.07
2022-11-04T10:46:55.845Z,11.82
2022-11-04T10:52:52.485Z,11.84
2022-11-04T10:55:42.829Z,11.87
2022-11-04T10:58:19.931Z,11.86
2022-11-04T11:00:50.704Z,11.79
2022-11-04T11:03:34.416Z,11.77
2022-11-04T11:06:23.956Z,11.78
2022-11-04T11:08:55.515Z,11.82
2022-11-04T11:11:47.494Z,11.92
2022-11-04T11:14:32.748Z,11.79
2022-11-04T11:17:23.128Z,11.68
2022-11-04T11:19:56.392Z,11.78
2022-11-04T11:22:38.602Z,11.62
2022-11-04T11:25:32.220Z,11.53
2022-11-04T11:28:04.558Z,11.52
2022-11-04T11:30:37.199Z,11.53
2022-11-04T11:33:19.216Z,11.58
2022-11-04T11:35:54.402Z,11.64
2022-11-04T11:38:27.748Z,11.70
2022-11-04T11:41:25.887Z,11.59
2022-11-04T11:43:58.596Z,11.75
2022-11-04T11:46:31.833Z,11.79
2022-11-04T11:49:06.218Z,12.08
2022-11-04T11:51:38.250Z,12.17
2022-11-04T11:54:22.959Z,12.27
2022-11-04T12:02:52.007Z,12.19
2022-11-04T12:11:51.060Z,12.31
2022-11-04T12:14:36.660Z,12.02
2022-11-04T12:17:24.650Z,11.92
2022-11-04T12:20:14.299Z,11.95
2022-11-04T12:22:59.596Z,12.13
2022-11-04T12:25:35.966Z,12.25
2022-11-04T12:28:16.998Z,12.10
2022-11-04T12:31:08.920Z,11.89
2022-11-04T12:33:48.863Z,11.73
2022-11-04T12:36:46.041Z,11.80
2022-11-04T12:39:47.586Z,11.88
2022-11-04T12:42:32.761Z,11.78
2022-11-04T12:45:21.403Z,11.84
2022-11-04T12:47:51.317Z,12.00
2022-11-04T12:50:49.722Z,12.00
2022-11-04T12:53:56.516Z,12.02
2022-11-04T12:56:39.019Z,12.11
2022-11-04T12:59:37.731Z,11.98
2022-11-04T13:02:17.097Z,11.84
2022-11-04T13:04:57.821Z,11.84
2022-11-04T13:07:35.002Z,11.78
2022-11-04T13:10:17.585Z,11.79
2022-11-04T13:12:52.049Z,11.78
2022-11-04T13:15:25.902Z,11.89
2022-11-04T13:18:02.453Z,11.81
2022-11-04T13:20:37.668Z,11.73
2022-11-04T13:23:16.258Z,11.77
2022-11-04T13:25:49.113Z,11.71
2022-11-04T13:28:24.204Z,11.67
2022-11-04T13:31:04.870Z,11.62
2022-11-04T13:33:48.404Z,11.62
2022-11-04T13:36:41.684Z,11.65
2022-11-04T13:39:20.211Z,11.62
2022-11-04T13:42:33.596Z,11.60
2022-11-04T13:45:14.398Z,11.59
2022-11-04T13:47:51.891Z,11.51
2022-11-04T13:50:36.860Z,11.45
2022-11-04T13:53:09.460Z,11.40
2022-11-04T13:55:51.088Z,11.47
2022-11-04T13:58:26.580Z,11.46
2022-11-04T14:01:28.452Z,11.41
2022-11-04T14:04:07.738Z,11.34
2022-11-04T14:06:53.979Z,11.40
2022-11-04T14:09:36.881Z,11.37
2022-11-04T14:12:30.943Z,11.27
2022-11-04T14:15:16.736Z,11.28
2022-11-04T14:18:05.924Z,11.19
2022-11-04T14:20:38.524Z,11.11
2022-11-04T14:23:23.920Z,11.09
2022-11-04T14:26:04.234Z,11.07
2022-11-04T14:28:35.421Z,11.02
2022-11-04T14:31:06.411Z,10.99
2022-11-04T14:33:51.580Z,10.93
2022-11-04T14:36:43.013Z,10.87
2022-11-04T14:39:26.885Z,10.84
2022-11-04T14:42:03.007Z,10.78
2022-11-04T14:44:39.103Z,10.73
2022-11-04T14:47:21.687Z,10.64
2022-11-04T14:50:01.262Z,10.57
2022-11-04T14:52:34.952Z,10.43
2022-11-04T14:55:14.566Z,10.35
2022-11-04T14:57:46.797Z,10.32
2022-11-04T15:00:35.640Z,10.28
2022-11-04T15:03:52.104Z,10.21
2022-11-04T15:06:11.303Z,10.11
2022-11-04T15:08:46.031Z,10.11
2022-11-04T15:11:38.942Z,10.04
2022-11-04T15:14:23.591Z,9.92
2022-11-04T15:16:57.935Z,9.83
2022-11-04T15:19:32.892Z,9.66
2022-11-04T15:22:05.924Z,9.58
2022-11-04T15:24:36.913Z,9.58
2022-11-04T15:27:08.332Z,9.65
2022-11-04T15:29:37.141Z,9.70
2022-11-04T15:32:07.352Z,9.72
2022-11-04T15:34:38.074Z,9.71
2022-11-04T15:37:09.888Z,9.68
2022-11-04T15:39:44.180Z,9.69
2022-11-04T15:42:40.635Z,9.66
2022-11-04T15:45:37.288Z,9.63
2022-11-04T15:48:30.964Z,9.56
2022-11-04T15:51:22.311Z,9.49
2022-11-04T15:53:56.932Z,9.49
2022-11-04T15:56:31.005Z,9.53
2022-11-04T15:59:02.969Z,9.58
2022-11-04T16:01:33.093Z,9.59
2022-11-04T16:04:07.291Z,9.67
2022-11-04T16:06:40.122Z,9.67
2022-11-04T16:09:28.595Z,9.63
2022-11-04T16:12:16.671Z,9.56
2022-11-04T16:14:53.721Z,9.52
2022-11-04T16:17:24.548Z,9.44
2022-11-04T16:19:56.862Z,9.42
2022-11-04T16:22:29.615Z,9.45
2022-11-04T16:25:02.190Z,9.43
2022-11-04T16:27:35.607Z,9.46
2022-11-04T16:30:18.192Z,9.49
2022-11-04T16:32:49.547Z,9.50
2022-11-04T16:35:22.019Z,9.53
2022-11-04T16:37:54.435Z,9.52
2022-11-04T16:40:26.317Z,9.51
2022-11-04T16:42:56.093Z,9.50
2022-11-04T16:45:30.341Z,9.51
2022-11-04T16:47:59.407Z,9.54
2022-11-04T16:50:32.073Z,9.50
2022-11-04T16:53:03.405Z,9.50
2022-11-04T16:55:34.253Z,9.49
2022-11-04T16:58:06.003Z,9.53
2022-11-04T17:00:35.491Z,9.58
2022-11-04T17:03:22.006Z,9.69
2022-11-04T17:05:52.264Z,9.80
2022-11-04T17:08:21.624Z,9.79
2022-11-04T17:10:52.262Z,9.83
2022-11-04T17:13:21.126Z,9.83
2022-11-04T17:15:50.189Z,10.00
2022-11-04T17:18:20.478Z,9.96
2022-11-04T17:20:56.115Z,10.03
2022-11-04T17:23:25.510Z,9.93
2022-11-04T17:25:56.845Z,9.98
2022-11-04T17:28:27.012Z,9.95
2022-11-04T17:30:55.884Z,9.96
2022-11-04T17:33:25.339Z,10.02
2022-11-04T17:35:54.679Z,9.97
2022-11-04T17:38:23.839Z,9.93
2022-11-04T17:41:11.745Z,9.84
2022-11-04T17:43:57.772Z,9.67
2022-11-04T17:46:35.805Z,9.53
2022-11-04T17:49:09.044Z,9.43
2022-11-04T17:51:40.288Z,9.22
2022-11-04T17:54:09.748Z,8.99
2022-11-04T17:56:40.992Z,8.82
2022-11-04T17:59:12.510Z,8.69
2022-11-04T18:01:43.228Z,8.58
2022-11-04T18:04:16.874Z,8.48
2022-11-04T18:06:46.283Z,8.43
2022-11-04T18:09:15.940Z,8.34
2022-11-04T18:12:05.066Z,8.31
2022-11-04T18:14:34.056Z,8.23
2022-11-04T18:17:02.955Z,8.08
2022-11-04T18:19:32.519Z,7.91
2022-11-04T18:22:01.644Z,7.84
2022-11-04T18:24:30.627Z,7.78
2022-11-04T18:27:01.629Z,7.66
2022-11-04T18:29:30.382Z,7.58
2022-11-04T18:31:59.166Z,7.53
2022-11-04T18:34:28.674Z,7.51
2022-11-04T18:37:00.387Z,7.69
2022-11-04T18:39:29.444Z,7.97
2022-11-04T18:41:59.825Z,8.17
2022-11-04T18:44:28.958Z,8.16
2022-11-04T18:46:57.957Z,8.10
2022-11-04T18:49:27.004Z,8.07
2022-11-04T18:51:55.908Z,8.15
2022-11-04T18:54:24.872Z,8.12
2022-11-04T18:56:53.731Z,8.19
2022-11-04T18:59:23.983Z,8.25
2022-11-04T19:01:53.472Z,8.19
2022-11-04T19:04:22.650Z,8.17
2022-11-04T19:06:51.530Z,8.21
2022-11-04T19:12:29.845Z,8.43
2022-11-04T19:15:00.146Z,8.39
2022-11-04T19:17:29.018Z,8.42
2022-11-04T19:19:58.338Z,8.41
2022-11-04T19:22:27.611Z,8.41
2022-11-04T19:24:56.426Z,8.49
2022-11-04T19:27:25.737Z,8.50
2022-11-04T19:29:55.215Z,8.62
2022-11-04T19:32:25.609Z,8.48
2022-11-04T19:34:54.732Z,8.47
2022-11-04T19:37:23.698Z,8.42
2022-11-04T19:39:54.232Z,8.22
2022-11-04T19:42:40.772Z,7.99
2022-11-04T19:45:10.970Z,7.76
2022-11-04T19:47:41.255Z,7.57
2022-11-04T19:50:10.829Z,7.47
2022-11-04T19:52:39.829Z,7.42
2022-11-04T19:55:10.601Z,7.45
2022-11-04T19:57:40.678Z,7.44
2022-11-04T20:00:12.140Z,7.35
2022-11-04T20:02:43.437Z,7.20
2022-11-04T20:05:12.313Z,7.20
2022-11-04T20:07:42.768Z,7.19
2022-11-04T20:10:12.467Z,7.37
2022-11-04T20:12:58.594Z,7.40
2022-11-04T20:15:28.685Z,7.30
2022-11-04T20:18:01.983Z,7.50
2022-11-04T20:20:31.708Z,7.79
2022-11-04T20:23:00.884Z,7.97
2022-11-04T20:25:29.789Z,8.14
2022-11-04T20:27:58.910Z,8.19
2022-11-04T20:30:27.898Z,8.30
2022-11-04T20:32:58.207Z,8.45
2022-11-04T20:35:27.128Z,8.53
2022-11-04T20:37:56.381Z,8.41
2022-11-04T20:40:25.448Z,8.42
2022-11-04T20:42:54.263Z,8.47
2022-11-04T20:45:24.129Z,8.45
2022-11-04T20:47:53.976Z,8.45
2022-11-04T20:50:24.327Z,8.50
2022-11-04T20:52:53.192Z,8.54
2022-11-04T20:55:23.158Z,8.49
2022-11-04T20:57:51.952Z,8.50
2022-11-04T21:00:21.492Z,8.43
2022-11-04T21:02:50.726Z,8.46
2022-11-04T21:05:20.114Z,8.50
2022-11-04T21:07:50.335Z,8.50
2022-11-04T21:10:19.243Z,8.58
2022-11-04T21:12:48.146Z,8.60
2022-11-04T21:15:30.920Z,8.60
2022-11-04T21:17:59.855Z,8.55
2022-11-04T21:20:29.051Z,8.50
2022-11-04T21:22:59.498Z,8.52
2022-11-04T21:25:28.315Z,8.45
2022-11-04T21:27:57.554Z,8.37
2022-11-04T21:30:31.905Z,8.30
2022-11-04T21:33:01.871Z,8.35
2022-11-04T21:35:31.077Z,8.38
2022-11-04T21:38:01.925Z,8.34
2022-11-04T21:40:31.206Z,8.24
2022-11-04T21:43:00.608Z,8.27
2022-11-04T21:45:29.932Z,8.24
2022-11-04T21:47:58.832Z,8.33
2022-11-04T21:50:27.794Z,8.24
2022-11-04T21:52:56.611Z,8.22
2022-11-04T21:55:27.004Z,8.32
2022-11-04T21:57:55.734Z,8.35
2022-11-04T22:00:24.575Z,8.31
2022-11-04T22:02:53.636Z,8.27
2022-11-04T22:05:22.717Z,8.33
2022-11-04T22:08:08.759Z,8.25
2022-11-04T22:10:39.199Z,8.32
2022-11-04T22:13:08.574Z,8.21
2022-11-04T22:15:55.218Z,8.26
2022-11-04T22:18:23.986Z,8.11
2022-11-04T22:20:53.470Z,8.16
2022-11-04T22:23:22.832Z,7.92
2022-11-04T22:25:53.115Z,7.84
2022-11-04T22:28:22.000Z,7.88
2022-11-04T22:30:50.996Z,7.80
2022-11-04T22:33:20.066Z,7.73
2022-11-04T22:35:49.236Z,7.76
2022-11-04T22:38:18.222Z,7.77
2022-11-04T22:40:54.453Z,7.85
2022-11-04T22:43:25.199Z,7.73
2022-11-04T22:45:55.112Z,7.72
2022-11-04T22:48:24.923Z,7.71
2022-11-04T22:50:58.120Z,7.69
2022-11-04T22:53:27.501Z,7.78
2022-11-04T22:55:56.598Z,7.75
2022-11-04T22:58:27.126Z,7.76
2022-11-04T23:00:57.866Z,7.77
2022-11-04T23:03:27.513Z,7.66
2022-11-04T23:05:57.470Z,7.70
2022-11-04T23:08:28.063Z,7.62
2022-11-04T23:11:17.089Z,7.76
2022-11-04T23:14:13.189Z,7.70
2022-11-04T23:17:07.189Z,7.56
2022-11-04T23:19:36.229Z,7.56
2022-11-04T23:22:23.065Z,7.49
2022-11-04T23:25:11.395Z,7.43
2022-11-04T23:28:03.162Z,7.34
2022-11-04T23:30:37.299Z,7.48
2022-11-04T23:33:09.288Z,7.47
2022-11-04T23:35:59.539Z,7.44
2022-11-04T23:38:29.876Z,7.42
2022-11-04T23:41:20.420Z,7.28
2022-11-04T23:43:49.046Z,7.21
2022-11-04T23:46:42.609Z,7.22
2022-11-04T23:49:30.762Z,7.16
2022-11-04T23:52:16.931Z,7.17
2022-11-04T23:55:03.177Z,7.10
2022-11-04T23:57:49.452Z,7.16
